createdAt,value
2022-10-18T00:01:54.174Z,15.70
2022-10-18T00:03:55.945Z,15.70
2022-10-18T00:05:57.865Z,15.60
2022-10-18T00:07:59.757Z,15.60
2022-10-18T00:10:01.546Z,15.60
2022-10-18T00:12:03.750Z,15.50
2022-10-18T00:14:05.429Z,15.40
2022-10-18T00:16:12.989Z,15.40
2022-10-18T00:18:14.646Z,15.30
2022-10-18T00:20:16.369Z,15.20
2022-10-18T00:22:18.192Z,15.10
2022-10-18T00:24:19.878Z,15.00
2022-10-18T00:26:24.862Z,14.90
2022-10-18T00:28:26.613Z,14.90
2022-10-18T00:30:28.344Z,14.90
2022-10-18T00:32:30.460Z,14.90
2022-10-18T00:34:32.318Z,14.80
2022-10-18T00:36:35.014Z,14.90
2022-10-18T00:38:37.799Z,14.80
2022-10-18T00:40:39.523Z,14.80
2022-10-18T00:42:41.169Z,14.80
2022-10-18T00:44:42.804Z,14.80
2022-10-18T00:46:47.121Z,14.70
2022-10-18T00:48:49.752Z,14.70
2022-10-18T00:50:52.681Z,14.70
2022-10-18T00:52:58.649Z,14.70
2022-10-18T00:55:00.931Z,14.70
2022-10-18T00:57:03.450Z,14.70
2022-10-18T00:59:05.386Z,14.80
2022-10-18T01:01:07.047Z,14.80
2022-10-18T01:03:09.493Z,14.90
2022-10-18T01:05:16.555Z,15.00
2022-10-18T01:07:36.408Z,15.00
2022-10-18T01:09:45.780Z,15.10
2022-10-18T01:12:00.193Z,15.20
2022-10-18T01:14:02.196Z,15.20
2022-10-18T01:16:46.111Z,15.20
2022-10-18T01:19:23.334Z,15.20
2022-10-18T01:21:40.827Z,15.30
2022-10-18T01:24:14.165Z,15.30
2022-10-18T01:26:34.093Z,15.40
2022-10-18T01:29:02.330Z,15.50
2022-10-18T01:31:09.243Z,15.50
2022-10-18T01:33:15.299Z,15.50
2022-10-18T01:35:26.437Z,15.50
2022-10-18T01:37:30.289Z,15.50
2022-10-18T01:39:37.192Z,15.50
2022-10-18T01:41:41.703Z,15.50
2022-10-18T01:43:46.478Z,15.50
2022-10-18T01:45:49.151Z,15.50
2022-10-18T01:47:52.374Z,15.50
2022-10-18T01:50:12.596Z,15.50
2022-10-18T01:52:16.213Z,15.40
2022-10-18T01:54:22.567Z,15.40
2022-10-18T01:57:12.082Z,15.40
2022-10-18T01:59:33.694Z,15.40
2022-10-18T02:02:04.229Z,15.40
2022-10-18T02:04:26.992Z,15.40
2022-10-18T02:06:33.810Z,15.40
2022-10-18T02:08:42.680Z,15.40
2022-10-18T02:10:48.975Z,15.40
2022-10-18T02:12:52.413Z,15.50
2022-10-18T02:14:55.671Z,15.60
2022-10-18T02:17:00.666Z,15.60
2022-10-18T02:19:26.670Z,15.70
2022-10-18T02:21:29.664Z,15.70
2022-10-18T02:23:33.334Z,15.80
2022-10-18T02:25:36.553Z,15.90
2022-10-18T02:27:38.441Z,16.00
2022-10-18T02:29:41.160Z,16.00
2022-10-18T02:31:52.797Z,16.10
2022-10-18T02:33:58.820Z,16.10
2022-10-18T02:36:09.621Z,16.10
2022-10-18T02:38:14.201Z,16.10
2022-10-18T02:40:16.574Z,16.10
2022-10-18T02:42:18.501Z,16.00
2022-10-18T02:44:20.338Z,15.90
2022-10-18T02:46:22.229Z,15.80
2022-10-18T02:48:24.042Z,15.80
2022-10-18T02:50:25.730Z,15.70
2022-10-18T02:52:27.329Z,15.70
2022-10-18T02:54:28.989Z,15.60
2022-10-18T02:56:30.904Z,15.60
2022-10-18T02:58:32.660Z,15.60
2022-10-18T03:00:34.297Z,15.70
2022-10-18T03:02:36.206Z,15.70
2022-10-18T03:04:38.130Z,15.70
2022-10-18T03:06:39.913Z,15.80
2022-10-18T03:08:41.554Z,15.80
2022-10-18T03:10:46.899Z,15.80
2022-10-18T03:12:48.684Z,15.90
2022-10-18T03:14:50.494Z,15.80
2022-10-18T03:16:52.153Z,15.90
2022-10-18T03:18:53.937Z,15.80
2022-10-18T03:20:55.693Z,15.80
2022-10-18T03:22:57.386Z,15.70
2022-10-18T03:24:59.233Z,15.70
2022-10-18T03:27:00.938Z,15.60
2022-10-18T03:29:02.666Z,15.60
2022-10-18T03:31:05.322Z,15.60
2022-10-18T03:33:07.371Z,15.50
2022-10-18T03:35:09.723Z,15.40
2022-10-18T03:37:11.376Z,15.40
2022-10-18T03:39:13.078Z,15.30
2022-10-18T03:41:14.705Z,15.20
2022-10-18T03:43:16.409Z,15.20
2022-10-18T03:45:18.093Z,15.20
2022-10-18T03:47:19.756Z,15.20
2022-10-18T03:49:21.408Z,15.20
2022-10-18T03:51:23.089Z,15.10
2022-10-18T03:53:24.704Z,15.10
2022-10-18T03:55:26.404Z,15.10
2022-10-18T03:57:28.066Z,15.10
2022-10-18T03:59:29.710Z,15.20
2022-10-18T04:01:31.627Z,15.20
2022-10-18T04:03:33.298Z,15.20
2022-10-18T04:05:36.713Z,15.20
2022-10-18T04:07:38.436Z,15.30
2022-10-18T04:09:40.053Z,15.30
2022-10-18T04:11:41.743Z,15.30
2022-10-18T04:13:43.455Z,15.30
2022-10-18T04:15:45.095Z,15.30
2022-10-18T04:17:47.117Z,15.30
2022-10-18T04:19:49.391Z,15.40
2022-10-18T04:21:51.061Z,15.40
2022-10-18T04:23:52.737Z,15.40
2022-10-18T04:25:54.424Z,15.40
2022-10-18T04:27:56.108Z,15.40
2022-10-18T04:29:57.808Z,15.30
2022-10-18T04:31:59.733Z,15.30
2022-10-18T04:34:03.005Z,15.30
2022-10-18T04:36:05.093Z,15.30
2022-10-18T04:38:06.861Z,15.20
2022-10-18T04:40:09.474Z,15.20
2022-10-18T04:42:11.149Z,15.10
2022-10-18T04:44:12.850Z,15.00
2022-10-18T04:46:14.537Z,14.90
2022-10-18T04:48:16.335Z,14.90
2022-10-18T04:50:18.076Z,14.90
2022-10-18T04:52:20.162Z,14.90
2022-10-18T04:54:23.881Z,14.90
2022-10-18T04:56:28.155Z,14.90
2022-10-18T04:58:29.867Z,15.00
2022-10-18T05:00:32.327Z,15.20
2022-10-18T05:02:36.293Z,15.30
2022-10-18T05:04:37.989Z,15.50
2022-10-18T05:06:39.730Z,15.60
2022-10-18T05:08:41.371Z,15.80
2022-10-18T05:10:43.041Z,15.90
2022-10-18T05:12:44.893Z,16.00
2022-10-18T05:14:46.544Z,16.00
2022-10-18T05:16:48.194Z,16.00
2022-10-18T05:18:49.874Z,16.00
2022-10-18T05:20:51.529Z,15.90
2022-10-18T05:22:53.173Z,15.90
2022-10-18T05:24:54.837Z,15.80
2022-10-18T05:26:57.093Z,15.90
2022-10-18T05:28:58.871Z,15.90
2022-10-18T05:31:02.631Z,16.00
2022-10-18T05:33:04.490Z,16.00
2022-10-18T05:35:06.710Z,16.00
2022-10-18T05:37:08.378Z,16.10
2022-10-18T05:39:10.040Z,16.00
2022-10-18T05:41:12.612Z,16.00
2022-10-18T05:43:14.259Z,16.00
2022-10-18T05:45:15.954Z,16.00
2022-10-18T05:47:17.573Z,16.10
2022-10-18T05:49:19.328Z,16.00
2022-10-18T05:51:20.969Z,16.00
2022-10-18T05:53:36.120Z,15.90
2022-10-18T05:55:38.684Z,15.80
2022-10-18T05:57:40.306Z,15.70
2022-10-18T05:59:41.926Z,15.70
2022-10-18T06:01:43.841Z,15.70
2022-10-18T06:03:45.430Z,15.70
2022-10-18T06:05:47.062Z,15.70
2022-10-18T06:07:48.774Z,15.80
2022-10-18T06:09:50.424Z,15.80
2022-10-18T06:11:52.142Z,15.70
2022-10-18T06:13:53.803Z,15.70
2022-10-18T06:15:58.219Z,15.80
2022-10-18T06:17:59.860Z,15.80
2022-10-18T06:20:01.497Z,15.90
2022-10-18T06:22:03.121Z,15.90
2022-10-18T06:24:05.083Z,16.00
2022-10-18T06:26:08.425Z,16.00
2022-10-18T06:28:11.531Z,16.00
2022-10-18T06:30:15.526Z,16.10
2022-10-18T06:32:17.306Z,16.10
2022-10-18T06:34:19.017Z,16.10
2022-10-18T06:36:24.998Z,16.10
2022-10-18T06:38:27.877Z,16.10
2022-10-18T06:40:30.962Z,16.10
2022-10-18T06:42:33.072Z,16.30
2022-10-18T06:44:35.111Z,16.60
2022-10-18T06:46:36.770Z,16.90
2022-10-18T06:48:39.692Z,17.30
2022-10-18T06:50:41.413Z,17.60
2022-10-18T06:52:43.650Z,17.90
2022-10-18T06:54:45.588Z,18.10
2022-10-18T06:56:47.261Z,18.70
2022-10-18T06:58:49.029Z,19.40
2022-10-18T07:00:50.746Z,20.10
2022-10-18T07:02:52.490Z,20.60
2022-10-18T07:04:54.188Z,20.90
2022-10-18T07:06:56.235Z,20.60
2022-10-18T07:08:57.898Z,19.90
2022-10-18T07:10:59.636Z,19.60
2022-10-18T07:13:19.921Z,19.50
2022-10-18T07:15:24.162Z,19.90
2022-10-18T07:17:27.140Z,19.90
2022-10-18T07:19:28.911Z,19.50
2022-10-18T07:21:31.361Z,18.80
2022-10-18T07:23:34.185Z,18.50
2022-10-18T07:25:36.249Z,18.20
2022-10-18T07:27:40.717Z,18.10
2022-10-18T07:29:42.327Z,17.80
2022-10-18T07:31:44.214Z,17.70
2022-10-18T07:33:45.964Z,17.60
2022-10-18T07:35:48.028Z,17.60
2022-10-18T07:37:49.658Z,17.60
2022-10-18T07:39:51.310Z,17.60
2022-10-18T07:41:52.961Z,17.60
2022-10-18T07:43:54.650Z,17.70
2022-10-18T07:45:59.254Z,17.70
2022-10-18T07:48:00.912Z,17.70
2022-10-18T07:50:02.575Z,17.80
2022-10-18T07:52:04.304Z,17.80
2022-10-18T07:54:05.963Z,17.80
2022-10-18T07:56:16.307Z,17.90
2022-10-18T07:58:18.138Z,17.90
2022-10-18T08:00:20.168Z,17.90
2022-10-18T08:02:22.542Z,18.00
2022-10-18T08:04:24.170Z,18.10
2022-10-18T08:06:25.885Z,18.10
2022-10-18T08:08:28.272Z,18.20
2022-10-18T08:10:30.055Z,18.30
2022-10-18T08:12:31.658Z,18.40
2022-10-18T08:14:33.437Z,18.50
2022-10-18T08:16:35.060Z,18.50
2022-10-18T08:18:37.712Z,18.60
2022-10-18T08:20:45.996Z,18.70
2022-10-18T08:22:51.252Z,19.10
2022-10-18T08:24:52.942Z,19.60
2022-10-18T08:26:54.622Z,20.30
2022-10-18T08:29:10.662Z,20.70
2022-10-18T08:31:19.415Z,21.00
2022-10-18T08:33:21.037Z,21.50
2022-10-18T08:35:22.767Z,22.20
2022-10-18T08:37:24.396Z,22.60
2022-10-18T08:39:26.262Z,22.70
2022-10-18T08:42:02.826Z,22.60
2022-10-18T08:44:17.319Z,22.50
2022-10-18T08:46:18.973Z,22.20
2022-10-18T08:48:29.225Z,21.70
2022-10-18T08:50:35.452Z,21.40
2022-10-18T08:55:09.878Z,22.80
2022-10-18T08:57:16.036Z,23.20
2022-10-18T08:59:19.933Z,22.90
2022-10-18T09:01:44.671Z,22.20
2022-10-18T09:04:23.230Z,21.50
2022-10-18T09:06:45.268Z,21.10
2022-10-18T09:09:13.280Z,20.90
2022-10-18T09:11:26.858Z,21.20
2022-10-18T09:14:05.735Z,21.80
2022-10-18T09:16:31.773Z,22.20
2022-10-18T09:18:58.407Z,23.00
2022-10-18T09:21:11.781Z,23.20
2022-10-18T09:23:23.138Z,22.90
2022-10-18T09:25:24.874Z,22.50
2022-10-18T09:27:36.263Z,22.40
2022-10-18T09:30:18.659Z,21.90
2022-10-18T09:32:41.422Z,21.40
2022-10-18T09:35:00.930Z,20.70
2022-10-18T09:37:03.103Z,20.90
2022-10-18T09:39:18.470Z,22.00
2022-10-18T09:41:32.831Z,23.00
2022-10-18T09:43:57.659Z,23.30
2022-10-18T09:45:59.577Z,24.20
2022-10-18T09:48:19.687Z,25.30
2022-10-18T09:50:29.639Z,25.10
2022-10-18T09:52:36.022Z,25.60
2022-10-18T09:55:01.322Z,25.80
2022-10-18T09:57:17.483Z,26.20
2022-10-18T09:59:42.397Z,27.00
2022-10-18T10:01:44.042Z,27.70
2022-10-18T10:03:45.777Z,28.20
2022-10-18T10:06:01.188Z,28.20
2022-10-18T10:08:03.191Z,27.80
2022-10-18T10:10:07.777Z,27.60
2022-10-18T10:12:29.782Z,27.20
2022-10-18T10:14:44.006Z,26.50
2022-10-18T10:17:05.801Z,26.60
2022-10-18T10:19:19.049Z,26.00
2022-10-18T10:21:21.743Z,24.90
2022-10-18T10:23:25.823Z,24.20
2022-10-18T10:25:34.217Z,23.30
2022-10-18T10:27:46.705Z,22.30
2022-10-18T10:29:51.388Z,21.60
2022-10-18T10:32:03.686Z,21.20
2022-10-18T10:34:14.403Z,20.90
2022-10-18T10:36:18.728Z,21.50
2022-10-18T10:38:29.149Z,22.10
2022-10-18T10:40:40.318Z,22.30
2022-10-18T10:43:08.918Z,22.30
2022-10-18T10:45:22.843Z,23.20
2022-10-18T10:47:32.822Z,24.40
2022-10-18T10:49:41.357Z,24.90
2022-10-18T10:51:43.755Z,25.80
2022-10-18T10:53:51.617Z,26.20
2022-10-18T10:55:56.104Z,26.70
2022-10-18T10:57:57.901Z,26.30
2022-10-18T10:59:59.851Z,26.00
2022-10-18T11:02:17.602Z,26.00
2022-10-18T11:04:27.069Z,26.20
2022-10-18T11:06:50.290Z,26.10
2022-10-18T11:08:53.563Z,26.30
2022-10-18T11:11:19.383Z,26.40
2022-10-18T11:13:49.925Z,26.50
2022-10-18T11:16:05.738Z,26.60
2022-10-18T11:18:30.651Z,26.70
2022-10-18T11:20:37.893Z,26.60
2022-10-18T11:23:00.791Z,26.70
2022-10-18T11:25:04.742Z,26.00
2022-10-18T11:27:32.533Z,25.80
2022-10-18T11:29:46.683Z,25.30
2022-10-18T11:31:54.053Z,24.40
2022-10-18T11:34:32.714Z,24.00
2022-10-18T11:36:50.403Z,23.60
2022-10-18T11:39:19.429Z,23.00
2022-10-18T11:41:27.229Z,22.40
2022-10-18T11:43:34.446Z,22.00
2022-10-18T11:46:08.708Z,21.80
2022-10-18T11:48:35.111Z,21.70
2022-10-18T11:50:51.959Z,22.20
2022-10-18T11:53:23.815Z,22.90
2022-10-18T11:55:57.023Z,23.00
2022-10-18T11:58:26.778Z,23.00
2022-10-18T12:00:34.646Z,22.80
2022-10-18T12:02:39.244Z,22.70
2022-10-18T12:05:22.090Z,23.00
2022-10-18T12:07:27.791Z,23.90
2022-10-18T12:09:41.883Z,24.20
2022-10-18T12:11:55.775Z,23.90
2022-10-18T12:14:04.678Z,22.80
2022-10-18T12:16:08.629Z,22.00
2022-10-18T12:18:17.394Z,21.50
2022-10-18T12:20:35.411Z,21.30
2022-10-18T12:22:44.770Z,21.30
2022-10-18T12:24:46.414Z,21.50
2022-10-18T12:26:51.979Z,21.70
2022-10-18T12:29:12.994Z,22.00
2022-10-18T12:31:38.734Z,22.00
2022-10-18T12:33:45.090Z,21.50
2022-10-18T12:36:28.818Z,21.30
2022-10-18T12:38:33.237Z,21.00
2022-10-18T12:40:42.836Z,20.90
2022-10-18T12:42:47.114Z,20.90
2022-10-18T12:44:49.951Z,20.60
2022-10-18T12:47:00.238Z,20.40
2022-10-18T12:49:04.634Z,20.10
2022-10-18T12:51:13.842Z,19.70
2022-10-18T12:53:26.765Z,19.40
2022-10-18T12:55:36.997Z,19.40
2022-10-18T12:57:53.760Z,19.60
2022-10-18T12:59:55.454Z,20.50
2022-10-18T13:01:57.320Z,21.10
2022-10-18T13:03:59.136Z,21.60
2022-10-18T13:06:06.397Z,22.40
2022-10-18T13:08:27.038Z,22.50
2022-10-18T13:10:37.193Z,22.90
2022-10-18T13:13:13.211Z,23.40
2022-10-18T13:15:40.465Z,23.90
2022-10-18T13:18:00.003Z,24.40
2022-10-18T13:20:25.492Z,23.80
2022-10-18T13:22:48.260Z,23.90
2022-10-18T13:25:19.283Z,24.30
2022-10-18T13:27:37.248Z,24.20
2022-10-18T13:29:47.871Z,23.10
2022-10-18T13:32:06.588Z,22.70
2022-10-18T13:34:30.790Z,23.10
2022-10-18T13:36:33.212Z,23.20
2022-10-18T13:38:47.240Z,23.40
2022-10-18T13:41:05.136Z,23.70
2022-10-18T13:43:52.226Z,23.90
2022-10-18T13:45:55.791Z,22.90
2022-10-18T13:48:17.819Z,22.00
2022-10-18T13:50:31.710Z,21.50
2022-10-18T13:52:39.144Z,21.50
2022-10-18T13:55:22.751Z,22.10
2022-10-18T13:57:30.410Z,22.20
2022-10-18T14:00:01.229Z,21.70
2022-10-18T14:02:36.389Z,21.40
2022-10-18T14:05:10.872Z,21.40
2022-10-18T14:07:21.551Z,22.00
2022-10-18T14:09:43.362Z,22.80
2022-10-18T14:11:50.709Z,23.40
2022-10-18T14:13:57.554Z,23.30
2022-10-18T14:16:09.203Z,23.10
2022-10-18T14:18:18.357Z,22.80
2022-10-18T14:20:49.576Z,23.00
2022-10-18T14:23:16.719Z,22.90
2022-10-18T14:25:30.637Z,22.40
2022-10-18T14:27:33.208Z,22.10
2022-10-18T14:29:35.280Z,21.50
2022-10-18T14:31:38.007Z,21.20
2022-10-18T14:33:57.548Z,20.80
2022-10-18T14:36:19.684Z,20.60
2022-10-18T14:38:22.954Z,20.50
2022-10-18T14:40:35.162Z,20.50
2022-10-18T14:42:36.806Z,20.60
2022-10-18T14:44:38.416Z,20.50
2022-10-18T14:46:45.040Z,20.30
2022-10-18T14:49:01.304Z,20.10
2022-10-18T14:51:07.607Z,20.00
2022-10-18T14:53:16.487Z,19.90
2022-10-18T14:55:32.978Z,19.80
2022-10-18T14:57:36.826Z,19.50
2022-10-18T14:59:51.800Z,19.40
2022-10-18T15:01:59.960Z,19.30
2022-10-18T15:04:06.908Z,19.20
2022-10-18T15:06:09.509Z,19.20
2022-10-18T15:08:11.229Z,19.20
2022-10-18T15:10:25.596Z,19.10
2022-10-18T15:12:33.922Z,19.10
2022-10-18T15:14:44.253Z,18.90
2022-10-18T15:16:47.120Z,18.80
2022-10-18T15:19:04.877Z,18.70
2022-10-18T15:21:23.976Z,18.60
2022-10-18T15:23:28.138Z,18.60
2022-10-18T15:25:35.837Z,18.60
2022-10-18T15:27:39.661Z,18.50
2022-10-18T15:29:43.648Z,18.40
2022-10-18T15:31:46.116Z,18.40
2022-10-18T15:33:47.818Z,18.40
2022-10-18T15:35:50.983Z,18.40
2022-10-18T15:37:52.970Z,18.40
2022-10-18T15:40:22.734Z,18.40
2022-10-18T15:42:38.076Z,18.30
2022-10-18T15:44:51.359Z,18.30
2022-10-18T15:46:56.426Z,18.20
2022-10-18T15:49:20.998Z,18.10
2022-10-18T15:51:41.390Z,18.10
2022-10-18T15:53:54.539Z,18.00
2022-10-18T15:55:58.454Z,17.90
2022-10-18T15:58:46.829Z,17.80
2022-10-18T16:00:50.240Z,17.80
2022-10-18T16:02:52.173Z,17.70
2022-10-18T16:04:54.224Z,17.70
2022-10-18T16:06:57.073Z,17.60
2022-10-18T16:08:58.966Z,17.50
2022-10-18T16:11:00.838Z,17.50
2022-10-18T16:13:02.441Z,17.50
2022-10-18T16:15:04.296Z,17.40
2022-10-18T16:17:07.102Z,17.40
2022-10-18T16:19:13.452Z,17.30
2022-10-18T16:21:39.842Z,17.40
2022-10-18T16:23:41.554Z,17.30
2022-10-18T16:25:43.286Z,17.20
2022-10-18T16:27:44.960Z,17.10
2022-10-18T16:29:46.620Z,17.10
2022-10-18T16:31:50.873Z,17.00
2022-10-18T16:33:53.848Z,17.00
2022-10-18T16:35:55.586Z,17.00
2022-10-18T16:37:57.357Z,17.00
2022-10-18T16:39:58.967Z,17.00
2022-10-18T16:42:00.659Z,16.90
2022-10-18T16:44:02.377Z,16.90
2022-10-18T16:46:05.426Z,16.90
2022-10-18T16:48:07.553Z,16.80
2022-10-18T16:50:17.622Z,16.80
2022-10-18T16:52:19.243Z,16.80
2022-10-18T16:54:21.077Z,16.80
2022-10-18T16:56:29.026Z,16.80
2022-10-18T16:58:32.394Z,16.80
2022-10-18T17:00:34.162Z,16.80
2022-10-18T17:02:35.786Z,16.80
2022-10-18T17:04:37.435Z,16.70
2022-10-18T17:06:39.299Z,16.80
2022-10-18T17:08:40.981Z,16.80
2022-10-18T17:10:42.710Z,16.70
2022-10-18T17:12:44.398Z,16.70
2022-10-18T17:14:46.014Z,16.70
2022-10-18T17:16:50.835Z,16.70
2022-10-18T17:18:58.333Z,16.70
2022-10-18T17:21:03.022Z,16.70
2022-10-18T17:23:04.842Z,16.70
2022-10-18T17:25:06.805Z,16.60
2022-10-18T17:27:10.757Z,16.60
2022-10-18T17:29:12.468Z,16.50
2022-10-18T17:31:15.036Z,16.60
2022-10-18T17:33:16.698Z,16.50
2022-10-18T17:35:18.350Z,16.50
2022-10-18T17:37:20.033Z,16.50
2022-10-18T17:39:21.743Z,16.50
2022-10-18T17:41:23.741Z,16.50
2022-10-18T17:43:25.559Z,16.50
2022-10-18T17:45:27.525Z,16.50
2022-10-18T17:47:29.174Z,16.50
2022-10-18T17:49:30.929Z,16.50
2022-10-18T17:51:32.691Z,16.50
2022-10-18T17:53:34.884Z,16.50
2022-10-18T17:55:36.612Z,16.50
2022-10-18T17:57:39.364Z,16.50
2022-10-18T17:59:41.073Z,16.50
2022-10-18T18:01:42.893Z,16.40
2022-10-18T18:03:44.954Z,16.50
2022-10-18T18:05:47.425Z,16.40
2022-10-18T18:07:49.026Z,16.40
2022-10-18T18:09:50.740Z,16.40
2022-10-18T18:11:53.644Z,16.30
2022-10-18T18:13:56.089Z,16.30
2022-10-18T18:15:57.781Z,16.30
2022-10-18T18:17:59.535Z,16.30
2022-10-18T18:20:01.191Z,16.30
2022-10-18T18:22:04.717Z,16.20
2022-10-18T18:24:07.741Z,16.20
2022-10-18T18:26:09.548Z,16.20
2022-10-18T18:28:11.150Z,16.10
2022-10-18T18:30:12.873Z,16.10
2022-10-18T18:32:14.567Z,16.10
2022-10-18T18:34:17.017Z,16.10
2022-10-18T18:36:20.011Z,16.00
2022-10-18T18:38:21.831Z,16.00
2022-10-18T18:40:23.783Z,16.00
2022-10-18T18:42:25.477Z,16.00
2022-10-18T18:44:27.289Z,16.00
2022-10-18T18:46:33.165Z,16.00
2022-10-18T18:48:36.001Z,16.00
2022-10-18T18:50:37.687Z,16.00
2022-10-18T18:52:39.422Z,15.90
2022-10-18T18:54:41.136Z,15.90
2022-10-18T18:56:43.077Z,15.90
2022-10-18T18:58:45.931Z,15.80
2022-10-18T19:00:47.603Z,15.80
2022-10-18T19:02:49.243Z,15.80
2022-10-18T19:04:51.449Z,15.80
2022-10-18T19:06:53.186Z,15.80
2022-10-18T19:09:04.469Z,15.70
2022-10-18T19:11:09.252Z,15.70
2022-10-18T19:13:11.439Z,15.70
2022-10-18T19:15:13.301Z,15.70
2022-10-18T19:17:15.132Z,15.60
2022-10-18T19:19:18.815Z,15.60
2022-10-18T19:21:21.930Z,15.60
2022-10-18T19:23:23.583Z,15.60
2022-10-18T19:25:26.986Z,15.50
2022-10-18T19:27:28.843Z,15.50
2022-10-18T19:29:36.364Z,15.50
2022-10-18T19:31:38.985Z,15.40
2022-10-18T19:33:48.635Z,15.40
2022-10-18T19:35:57.478Z,15.40
2022-10-18T19:37:59.167Z,15.30
2022-10-18T19:40:00.825Z,15.30
2022-10-18T19:42:08.881Z,15.20
2022-10-18T19:44:10.625Z,15.20
2022-10-18T19:46:12.343Z,15.10
2022-10-18T19:48:13.957Z,15.20
2022-10-18T19:50:15.642Z,15.10
2022-10-18T19:52:17.353Z,15.20
2022-10-18T19:54:19.138Z,15.10
2022-10-18T19:56:23.198Z,15.10
2022-10-18T19:58:24.866Z,15.10
2022-10-18T20:00:26.594Z,15.10
2022-10-18T20:02:28.192Z,15.10
2022-10-18T20:04:34.141Z,15.00
2022-10-18T20:06:37.610Z,14.90
2022-10-18T20:08:39.624Z,14.90
2022-10-18T20:10:41.337Z,14.90
2022-10-18T20:12:43.057Z,14.80
2022-10-18T20:14:44.759Z,14.70
2022-10-18T20:16:46.455Z,14.60
2022-10-18T20:18:48.298Z,14.60
2022-10-18T20:20:50.764Z,14.50
2022-10-18T20:22:52.484Z,14.40
2022-10-18T20:24:55.986Z,14.20
2022-10-18T20:26:57.611Z,14.10
2022-10-18T20:28:59.930Z,14.00
2022-10-18T20:31:07.222Z,13.90
2022-10-18T20:33:08.867Z,13.90
2022-10-18T20:35:10.526Z,13.80
2022-10-18T20:37:12.320Z,13.80
2022-10-18T20:39:14.028Z,13.80
2022-10-18T20:41:20.794Z,13.70
2022-10-18T20:43:22.574Z,13.60
2022-10-18T20:45:24.186Z,13.60
2022-10-18T20:47:25.799Z,13.50
2022-10-18T20:49:27.430Z,13.50
2022-10-18T20:51:29.152Z,13.50
2022-10-18T20:53:30.770Z,13.50
2022-10-18T20:55:32.580Z,13.50
2022-10-18T20:57:36.516Z,13.50
2022-10-18T20:59:38.500Z,13.50
2022-10-18T21:01:40.458Z,13.50
2022-10-18T21:03:44.692Z,13.40
2022-10-18T21:05:46.322Z,13.30
2022-10-18T21:07:47.938Z,13.30
2022-10-18T21:09:49.666Z,13.30
2022-10-18T21:11:53.691Z,13.30
2022-10-18T21:14:02.862Z,13.20
2022-10-18T21:16:06.202Z,13.20
2022-10-18T21:18:07.824Z,13.20
2022-10-18T21:20:10.226Z,13.20
2022-10-18T21:22:11.838Z,13.20
2022-10-18T21:24:13.894Z,13.20
2022-10-18T21:26:24.129Z,13.20
2022-10-18T21:28:25.790Z,13.10
2022-10-18T21:30:27.458Z,13.20
2022-10-18T21:32:29.198Z,13.30
2022-10-18T21:34:30.901Z,13.30
2022-10-18T21:36:35.299Z,13.30
2022-10-18T21:38:37.517Z,13.30
2022-10-18T21:40:44.437Z,13.30
2022-10-18T21:42:46.129Z,13.20
2022-10-18T21:44:47.746Z,13.20
2022-10-18T21:46:49.785Z,13.20
2022-10-18T21:48:52.880Z,13.20
2022-10-18T21:50:54.982Z,13.20
2022-10-18T21:52:56.646Z,13.20
2022-10-18T21:54:58.270Z,13.20
2022-10-18T21:56:59.849Z,13.10
2022-10-18T21:59:02.608Z,13.20
2022-10-18T22:01:12.639Z,13.20
2022-10-18T22:03:14.296Z,13.20
2022-10-18T22:05:15.938Z,13.30
2022-10-18T22:07:17.632Z,13.30
2022-10-18T22:09:21.001Z,13.30
2022-10-18T22:11:30.358Z,13.30
2022-10-18T22:13:32.160Z,13.30
2022-10-18T22:15:33.911Z,13.40
2022-10-18T22:17:36.054Z,13.50
2022-10-18T22:19:37.952Z,13.60
2022-10-18T22:21:39.822Z,13.80
2022-10-18T22:23:47.221Z,13.90
2022-10-18T22:25:49.298Z,14.00
2022-10-18T22:27:50.974Z,14.00
2022-10-18T22:29:53.417Z,14.10
2022-10-18T22:31:55.138Z,14.00
2022-10-18T22:33:59.275Z,14.00
2022-10-18T22:36:00.992Z,13.90
2022-10-18T22:38:02.832Z,13.90
2022-10-18T22:40:04.897Z,13.90
2022-10-18T22:42:06.657Z,13.80
2022-10-18T22:44:12.072Z,13.80
2022-10-18T22:46:15.124Z,13.80
2022-10-18T22:48:16.734Z,13.80
2022-10-18T22:50:18.362Z,13.70
2022-10-18T22:52:19.997Z,13.80
2022-10-18T22:54:21.656Z,13.80
2022-10-18T22:56:24.082Z,13.80
2022-10-18T22:58:26.154Z,13.80
2022-10-18T23:00:27.763Z,13.80
2022-10-18T23:02:29.450Z,13.80
2022-10-18T23:04:31.089Z,13.80
2022-10-18T23:06:34.821Z,13.80
2022-10-18T23:08:36.576Z,13.70
2022-10-18T23:10:40.030Z,13.70
2022-10-18T23:12:41.649Z,13.80
2022-10-18T23:14:44.620Z,13.80
2022-10-18T23:16:46.303Z,13.70
2022-10-18T23:18:55.705Z,13.80
2022-10-18T23:21:01.776Z,13.70
2022-10-18T23:23:03.816Z,13.60
2022-10-18T23:25:05.828Z,13.50
2022-10-18T23:27:07.467Z,13.50
2022-10-18T23:29:09.423Z,13.50
2022-10-18T23:31:20.020Z,13.50
2022-10-18T23:33:21.657Z,13.60
2022-10-18T23:35:23.660Z,13.60
2022-10-18T23:37:25.331Z,13.60
2022-10-18T23:39:26.978Z,13.60
2022-10-18T23:41:28.676Z,13.60
2022-10-18T23:43:30.470Z,13.60
2022-10-18T23:45:32.045Z,13.60
2022-10-18T23:47:34.127Z,13.50
2022-10-18T23:49:36.000Z,13.50
2022-10-18T23:51:37.882Z,13.40
2022-10-18T23:53:40.257Z,13.40
2022-10-18T23:56:03.787Z,13.30
2022-10-18T23:58:05.497Z,13.10
